ARA225 EDDB-LIMC
Flight info
| Callsign | ARA225 |
|---|---|
| Flight time | 1h 50m |
| Altitude | 35000 |
| Route | KISUC1Z KISUC Z117 ORTAG/N0459F370 DCT BAMKI/N0459F360 DCT IBAGA DCT DKB DCT TEDGO DCT SONOM/N0459F370 DCT GERSA N850 DEGAD Z424 BASGO/N0467F290 Z424 AKASU/N0397F190 Z424 RIXUV |
| Aircraft | B737/M-SDE2E3FGHIRWXY/LB1 |
Departure
| Time | 2026-05-06 07:51 |
|---|---|
| Airport | Berlin Brandenburg Airport (EDDB) |
Arrival
| Time | 2026-05-06 09:42 |
|---|---|
| Airport | Milan Malpensa International Airport (LIMC) |
| Time | Latitude | Longitude | Altitude | Speed | Heading |
|---|---|---|---|---|---|
| 2026-05-06 07:17 | 52.36089 | 13.51124 | 151 ft | 0 kts | 346° |
| 2026-05-06 07:37 | 52.36079 | 13.51128 | 155 ft | 3 kts | 342° |
| 2026-05-06 07:38 | 52.36060 | 13.51140 | 156 ft | 3 kts | 333° |
| 2026-05-06 07:38 | 52.36043 | 13.51157 | 156 ft | 3 kts | 321° |
| 2026-05-06 07:38 | 52.36029 | 13.51179 | 156 ft | 3 kts | 300° |
| 2026-05-06 07:38 | 52.36023 | 13.51206 | 156 ft | 2 kts | 258° |
| 2026-05-06 07:39 | 52.36024 | 13.51214 | 156 ft | 3 kts | 249° |
| 2026-05-06 07:44 | 52.36024 | 13.51215 | 156 ft | 0 kts | 249° |
| 2026-05-06 07:45 | 52.36006 | 13.51137 | 156 ft | 15 kts | 249° |
| 2026-05-06 07:45 | 52.35969 | 13.50976 | 156 ft | 15 kts | 249° |
| 2026-05-06 07:45 | 52.35935 | 13.50822 | 155 ft | 14 kts | 251° |
| 2026-05-06 07:46 | 52.35885 | 13.50761 | 154 ft | 8 kts | 158° |
| 2026-05-06 07:46 | 52.35820 | 13.50803 | 154 ft | 15 kts | 159° |
| 2026-05-06 07:46 | 52.35728 | 13.50829 | 156 ft | 10 kts | 213° |
| 2026-05-06 07:46 | 52.35702 | 13.50732 | 156 ft | 26 kts | 251° |
| 2026-05-06 07:47 | 52.35602 | 13.50296 | 156 ft | 42 kts | 249° |
| 2026-05-06 07:47 | 52.35502 | 13.49879 | 155 ft | 36 kts | 249° |
| 2026-05-06 07:47 | 52.35419 | 13.49527 | 159 ft | 30 kts | 249° |
| 2026-05-06 07:47 | 52.35346 | 13.49220 | 162 ft | 28 kts | 249° |
| 2026-05-06 07:48 | 52.35281 | 13.48930 | 158 ft | 26 kts | 249° |
| 2026-05-06 07:48 | 52.35215 | 13.48663 | 156 ft | 25 kts | 248° |
| 2026-05-06 07:48 | 52.35153 | 13.48413 | 157 ft | 23 kts | 249° |
| 2026-05-06 07:48 | 52.35097 | 13.48173 | 157 ft | 22 kts | 250° |
| 2026-05-06 07:49 | 52.35043 | 13.47939 | 157 ft | 22 kts | 249° |
| 2026-05-06 07:49 | 52.34989 | 13.47708 | 158 ft | 25 kts | 248° |
| 2026-05-06 07:49 | 52.34915 | 13.47403 | 154 ft | 29 kts | 248° |
| 2026-05-06 07:49 | 52.34844 | 13.47106 | 154 ft | 27 kts | 248° |
| 2026-05-06 07:50 | 52.34777 | 13.46828 | 158 ft | 25 kts | 249° |
| 2026-05-06 07:50 | 52.34698 | 13.46783 | 160 ft | 12 kts | 160° |
| 2026-05-06 07:50 | 52.34618 | 13.46830 | 159 ft | 15 kts | 159° |
| 2026-05-06 07:50 | 52.34583 | 13.47011 | 159 ft | 24 kts | 70° |
| 2026-05-06 07:51 | 52.34722 | 13.47589 | 156 ft | 92 kts | 68° |
| 2026-05-06 07:51 | 52.35035 | 13.48901 | 218 ft | 149 kts | 67° |
| 2026-05-06 07:51 | 52.35409 | 13.50469 | 1110 ft | 142 kts | 66° |
| 2026-05-06 07:51 | 52.35734 | 13.51960 | 2066 ft | 141 kts | 71° |
| 2026-05-06 07:52 | 52.36041 | 13.53642 | 2653 ft | 166 kts | 81° |
| 2026-05-06 07:52 | 52.35773 | 13.55617 | 3044 ft | 195 kts | 130° |
| 2026-05-06 07:52 | 52.34600 | 13.56866 | 3649 ft | 209 kts | 159° |
| 2026-05-06 07:52 | 52.33150 | 13.57063 | 4339 ft | 215 kts | 201° |
| 2026-05-06 07:53 | 52.31951 | 13.55617 | 4997 ft | 227 kts | 231° |
| 2026-05-06 07:53 | 52.31199 | 13.54318 | 5185 ft | 248 kts | 223° |
| 2026-05-06 07:53 | 52.30782 | 13.53729 | 5319 ft | 255 kts | 221° |
| 2026-05-06 07:53 | 52.29383 | 13.51868 | 6082 ft | 263 kts | 220° |
| 2026-05-06 07:54 | 52.27939 | 13.49966 | 6939 ft | 268 kts | 221° |
| 2026-05-06 07:54 | 52.26761 | 13.47620 | 7840 ft | 269 kts | 244° |
| 2026-05-06 07:54 | 52.26267 | 13.44674 | 8701 ft | 274 kts | 265° |
| 2026-05-06 07:54 | 52.25948 | 13.41630 | 9486 ft | 279 kts | 246° |
| 2026-05-06 07:55 | 52.25060 | 13.38796 | 10218 ft | 286 kts | 241° |
| 2026-05-06 07:55 | 52.24052 | 13.35831 | 10436 ft | 311 kts | 241° |
| 2026-05-06 07:55 | 52.22967 | 13.32618 | 10632 ft | 335 kts | 241° |
| 2026-05-06 07:55 | 52.22157 | 13.30186 | 10775 ft | 351 kts | 242° |
| 2026-05-06 07:56 | 52.20979 | 13.26600 | 11210 ft | 366 kts | 242° |
| 2026-05-06 07:56 | 52.20167 | 13.24105 | 11685 ft | 369 kts | 243° |
| 2026-05-06 07:56 | 52.18977 | 13.20413 | 12556 ft | 368 kts | 243° |
| 2026-05-06 07:56 | 52.17794 | 13.16721 | 13367 ft | 369 kts | 244° |
| 2026-05-06 07:57 | 52.16619 | 13.13041 | 14004 ft | 373 kts | 243° |
| 2026-05-06 07:57 | 52.15417 | 13.09270 | 14633 ft | 378 kts | 243° |
| 2026-05-06 07:57 | 52.14200 | 13.05455 | 15281 ft | 381 kts | 243° |
| 2026-05-06 07:57 | 52.12973 | 13.01607 | 15960 ft | 384 kts | 243° |
| 2026-05-06 07:58 | 52.11732 | 12.97722 | 16599 ft | 388 kts | 243° |
| 2026-05-06 07:58 | 52.10479 | 12.93809 | 17242 ft | 392 kts | 243° |
| 2026-05-06 07:58 | 52.09215 | 12.89862 | 17883 ft | 395 kts | 243° |
| 2026-05-06 07:58 | 52.07940 | 12.85889 | 18476 ft | 399 kts | 242° |
| 2026-05-06 07:59 | 52.06645 | 12.81863 | 19024 ft | 404 kts | 242° |
| 2026-05-06 07:59 | 52.05336 | 12.77799 | 19543 ft | 409 kts | 242° |
| 2026-05-06 07:59 | 52.04011 | 12.73693 | 20051 ft | 412 kts | 242° |
| 2026-05-06 07:59 | 52.02676 | 12.69561 | 20536 ft | 415 kts | 242° |
| 2026-05-06 08:00 | 52.01324 | 12.65380 | 20984 ft | 420 kts | 242° |
| 2026-05-06 08:00 | 51.99959 | 12.61172 | 21453 ft | 423 kts | 242° |
| 2026-05-06 08:00 | 51.98581 | 12.56928 | 21914 ft | 427 kts | 242° |
| 2026-05-06 08:00 | 51.97190 | 12.52653 | 22364 ft | 430 kts | 242° |
| 2026-05-06 08:01 | 51.95785 | 12.48340 | 22807 ft | 434 kts | 242° |
| 2026-05-06 08:01 | 51.94370 | 12.44006 | 23258 ft | 437 kts | 241° |
| 2026-05-06 08:01 | 51.92941 | 12.39637 | 23636 ft | 440 kts | 241° |
| 2026-05-06 08:01 | 51.91501 | 12.35243 | 23989 ft | 443 kts | 241° |
| 2026-05-06 08:02 | 51.90053 | 12.30828 | 24333 ft | 446 kts | 241° |
| 2026-05-06 08:02 | 51.88590 | 12.26380 | 24671 ft | 449 kts | 241° |
| 2026-05-06 08:02 | 51.87117 | 12.21908 | 24999 ft | 451 kts | 241° |
| 2026-05-06 08:02 | 51.85635 | 12.17415 | 25316 ft | 454 kts | 241° |
| 2026-05-06 08:03 | 51.84142 | 12.12900 | 25624 ft | 457 kts | 241° |
| 2026-05-06 08:03 | 51.82636 | 12.08352 | 25952 ft | 460 kts | 241° |
| 2026-05-06 08:03 | 51.81118 | 12.03776 | 26274 ft | 463 kts | 241° |
| 2026-05-06 08:03 | 51.79590 | 11.99179 | 26556 ft | 466 kts | 240° |
| 2026-05-06 08:04 | 51.78050 | 11.94555 | 26824 ft | 469 kts | 240° |
| 2026-05-06 08:04 | 51.76517 | 11.89959 | 27121 ft | 470 kts | 240° |
| 2026-05-06 08:04 | 51.74961 | 11.85304 | 27493 ft | 470 kts | 240° |
| 2026-05-06 08:04 | 51.73407 | 11.80661 | 27888 ft | 470 kts | 240° |
| 2026-05-06 08:05 | 51.71849 | 11.76018 | 28265 ft | 471 kts | 240° |
| 2026-05-06 08:05 | 51.70288 | 11.71373 | 28642 ft | 471 kts | 240° |
| 2026-05-06 08:05 | 51.68725 | 11.66731 | 29021 ft | 472 kts | 240° |
| 2026-05-06 08:05 | 51.67157 | 11.62086 | 29424 ft | 472 kts | 240° |
| 2026-05-06 08:06 | 51.65587 | 11.57438 | 29822 ft | 472 kts | 240° |
| 2026-05-06 08:06 | 51.64016 | 11.52798 | 30160 ft | 472 kts | 240° |
| 2026-05-06 08:06 | 51.62451 | 11.48183 | 30642 ft | 468 kts | 239° |
| 2026-05-06 08:06 | 51.60897 | 11.43611 | 31170 ft | 463 kts | 239° |
| 2026-05-06 08:07 | 51.59356 | 11.39083 | 31689 ft | 459 kts | 239° |
| 2026-05-06 08:07 | 51.57829 | 11.34605 | 32122 ft | 456 kts | 239° |
| 2026-05-06 08:07 | 51.56309 | 11.30154 | 32529 ft | 454 kts | 239° |
| 2026-05-06 08:07 | 51.54793 | 11.25725 | 32948 ft | 451 kts | 239° |
| 2026-05-06 08:08 | 51.53285 | 11.21325 | 33376 ft | 448 kts | 239° |
| 2026-05-06 08:08 | 51.51783 | 11.16953 | 33769 ft | 446 kts | 239° |
| 2026-05-06 08:08 | 51.50002 | 11.12936 | 34022 ft | 441 kts | 223° |
| 2026-05-06 08:08 | 51.47583 | 11.09958 | 34274 ft | 438 kts | 208° |
| 2026-05-06 08:09 | 51.44801 | 11.08015 | 34540 ft | 436 kts | 195° |
| 2026-05-06 08:09 | 51.41811 | 11.07232 | 34750 ft | 438 kts | 185° |
| 2026-05-06 08:09 | 51.35683 | 11.06775 | 34750 ft | 439 kts | 183° |
| 2026-05-06 08:10 | 51.29632 | 11.06445 | 34751 ft | 437 kts | 183° |
| 2026-05-06 08:10 | 51.23557 | 11.06028 | 34746 ft | 436 kts | 184° |
| 2026-05-06 08:11 | 51.17501 | 11.05560 | 34758 ft | 436 kts | 184° |
| 2026-05-06 08:11 | 51.11434 | 11.05081 | 34744 ft | 436 kts | 185° |
| 2026-05-06 08:12 | 51.05379 | 11.04605 | 34746 ft | 436 kts | 185° |
| 2026-05-06 08:12 | 50.99306 | 11.04130 | 34748 ft | 436 kts | 185° |
| 2026-05-06 08:13 | 50.93227 | 11.03657 | 34747 ft | 437 kts | 185° |
| 2026-05-06 08:13 | 50.87154 | 11.03186 | 34752 ft | 437 kts | 185° |
| 2026-05-06 08:14 | 50.81078 | 11.02716 | 34752 ft | 437 kts | 185° |
| 2026-05-06 08:14 | 50.75007 | 11.02247 | 34743 ft | 437 kts | 185° |
| 2026-05-06 08:15 | 50.69080 | 11.00845 | 34748 ft | 432 kts | 198° |
| 2026-05-06 08:15 | 50.63342 | 10.98031 | 34755 ft | 431 kts | 199° |
| 2026-05-06 08:16 | 50.57620 | 10.95214 | 34756 ft | 431 kts | 199° |
| 2026-05-06 08:16 | 50.51890 | 10.92444 | 34770 ft | 431 kts | 199° |
| 2026-05-06 08:17 | 50.46157 | 10.89701 | 34767 ft | 431 kts | 199° |
| 2026-05-06 08:17 | 50.40418 | 10.86968 | 34763 ft | 431 kts | 199° |
| 2026-05-06 08:18 | 50.34717 | 10.84260 | 34774 ft | 430 kts | 199° |
| 2026-05-06 08:18 | 50.28983 | 10.81542 | 34774 ft | 430 kts | 199° |
| 2026-05-06 08:19 | 50.23255 | 10.78833 | 34779 ft | 430 kts | 199° |
| 2026-05-06 08:19 | 50.17536 | 10.76136 | 34772 ft | 429 kts | 199° |
| 2026-05-06 08:20 | 50.11833 | 10.73453 | 34776 ft | 428 kts | 199° |
| 2026-05-06 08:20 | 50.06269 | 10.70843 | 34742 ft | 416 kts | 199° |
| 2026-05-06 08:21 | 50.00758 | 10.68263 | 34779 ft | 417 kts | 199° |
| 2026-05-06 08:21 | 49.95126 | 10.65628 | 34787 ft | 427 kts | 199° |
| 2026-05-06 08:22 | 49.89446 | 10.62982 | 34779 ft | 425 kts | 199° |
| 2026-05-06 08:22 | 49.83808 | 10.60362 | 34786 ft | 423 kts | 199° |
| 2026-05-06 08:23 | 49.78182 | 10.57752 | 34784 ft | 422 kts | 199° |
| 2026-05-06 08:23 | 49.72576 | 10.55116 | 34791 ft | 420 kts | 200° |
| 2026-05-06 08:24 | 49.67067 | 10.52143 | 34801 ft | 419 kts | 201° |
| 2026-05-06 08:24 | 49.61586 | 10.49106 | 34805 ft | 418 kts | 201° |
| 2026-05-06 08:25 | 49.56104 | 10.46118 | 34804 ft | 418 kts | 201° |
| 2026-05-06 08:25 | 49.50649 | 10.43178 | 34800 ft | 418 kts | 201° |
| 2026-05-06 08:26 | 49.45155 | 10.40231 | 34803 ft | 417 kts | 201° |
| 2026-05-06 08:26 | 49.39669 | 10.37295 | 34805 ft | 417 kts | 201° |
| 2026-05-06 08:27 | 49.34182 | 10.34365 | 34806 ft | 418 kts | 201° |
| 2026-05-06 08:27 | 49.28687 | 10.31436 | 34815 ft | 418 kts | 201° |
| 2026-05-06 08:28 | 49.23198 | 10.28516 | 34827 ft | 418 kts | 201° |
| 2026-05-06 08:28 | 49.17727 | 10.25476 | 34817 ft | 417 kts | 207° |
| 2026-05-06 08:29 | 49.12929 | 10.20612 | 34814 ft | 415 kts | 221° |
| 2026-05-06 08:29 | 49.09061 | 10.14103 | 34808 ft | 415 kts | 230° |
| 2026-05-06 08:30 | 49.05488 | 10.07248 | 34802 ft | 415 kts | 230° |
| 2026-05-06 08:30 | 49.01858 | 10.00319 | 34803 ft | 416 kts | 230° |
| 2026-05-06 08:31 | 48.98255 | 9.93516 | 34802 ft | 416 kts | 230° |
| 2026-05-06 08:31 | 48.94616 | 9.86688 | 34805 ft | 415 kts | 230° |
| 2026-05-06 08:32 | 48.90972 | 9.79872 | 34800 ft | 415 kts | 230° |
| 2026-05-06 08:32 | 48.87323 | 9.73063 | 34798 ft | 415 kts | 230° |
| 2026-05-06 08:33 | 48.83675 | 9.66272 | 34797 ft | 415 kts | 230° |
| 2026-05-06 08:33 | 48.80023 | 9.59490 | 34797 ft | 415 kts | 230° |
| 2026-05-06 08:34 | 48.74539 | 9.49338 | 34797 ft | 415 kts | 230° |
| 2026-05-06 08:35 | 48.70879 | 9.42583 | 34804 ft | 415 kts | 229° |
| 2026-05-06 08:35 | 48.67214 | 9.35834 | 34801 ft | 415 kts | 229° |
| 2026-05-06 08:36 | 48.63393 | 9.29335 | 34797 ft | 414 kts | 220° |
| 2026-05-06 08:36 | 48.58555 | 9.24643 | 34798 ft | 415 kts | 206° |
| 2026-05-06 08:37 | 48.53054 | 9.21899 | 34797 ft | 417 kts | 198° |
| 2026-05-06 08:37 | 48.47501 | 9.19535 | 34796 ft | 417 kts | 198° |
| 2026-05-06 08:38 | 48.41933 | 9.17141 | 34799 ft | 415 kts | 199° |
| 2026-05-06 08:38 | 48.36382 | 9.14722 | 34800 ft | 415 kts | 199° |
| 2026-05-06 08:39 | 48.30849 | 9.12301 | 34795 ft | 414 kts | 199° |
| 2026-05-06 08:39 | 48.25328 | 9.09888 | 34797 ft | 412 kts | 198° |
| 2026-05-06 08:40 | 48.19828 | 9.07490 | 34800 ft | 411 kts | 198° |
| 2026-05-06 08:40 | 48.14342 | 9.05104 | 34799 ft | 410 kts | 198° |
| 2026-05-06 08:41 | 48.09792 | 9.03129 | 34804 ft | 409 kts | 198° |
| 2026-05-06 08:41 | 48.04329 | 9.00763 | 34807 ft | 408 kts | 198° |
| 2026-05-06 08:42 | 47.98875 | 8.98406 | 34809 ft | 408 kts | 198° |
| 2026-05-06 08:42 | 47.93431 | 8.96058 | 34813 ft | 407 kts | 198° |
| 2026-05-06 08:43 | 47.87984 | 8.93714 | 34809 ft | 408 kts | 198° |
| 2026-05-06 08:43 | 47.82533 | 8.91372 | 34814 ft | 408 kts | 198° |
| 2026-05-06 08:44 | 47.77174 | 8.89059 | 34821 ft | 408 kts | 199° |
| 2026-05-06 08:44 | 47.71782 | 8.86425 | 34821 ft | 408 kts | 200° |
| 2026-05-06 08:45 | 47.66409 | 8.83711 | 34826 ft | 408 kts | 200° |
| 2026-05-06 08:45 | 47.61046 | 8.81036 | 34825 ft | 408 kts | 200° |
| 2026-05-06 08:46 | 47.55645 | 8.78371 | 34825 ft | 409 kts | 200° |
| 2026-05-06 08:46 | 47.50240 | 8.75718 | 34829 ft | 409 kts | 200° |
| 2026-05-06 08:47 | 47.44833 | 8.73070 | 34829 ft | 409 kts | 200° |
| 2026-05-06 08:47 | 47.39418 | 8.70424 | 34842 ft | 410 kts | 200° |
| 2026-05-06 08:48 | 47.33985 | 8.67773 | 34826 ft | 411 kts | 200° |
| 2026-05-06 08:48 | 47.28585 | 8.65146 | 34829 ft | 411 kts | 200° |
| 2026-05-06 08:49 | 47.23154 | 8.62508 | 34821 ft | 411 kts | 200° |
| 2026-05-06 08:49 | 47.17726 | 8.59877 | 34831 ft | 410 kts | 200° |
| 2026-05-06 08:50 | 47.12298 | 8.57251 | 34828 ft | 412 kts | 200° |
| 2026-05-06 08:50 | 47.06848 | 8.54672 | 34824 ft | 412 kts | 196° |
| 2026-05-06 08:51 | 47.01140 | 8.53622 | 34831 ft | 417 kts | 183° |
| 2026-05-06 08:51 | 46.95320 | 8.54350 | 34827 ft | 421 kts | 178° |
| 2026-05-06 08:52 | 46.89500 | 8.55252 | 34815 ft | 420 kts | 178° |
| 2026-05-06 08:52 | 46.83687 | 8.56113 | 34820 ft | 418 kts | 179° |
| 2026-05-06 08:53 | 46.77915 | 8.56947 | 34808 ft | 416 kts | 179° |
| 2026-05-06 08:53 | 46.72148 | 8.57766 | 34883 ft | 417 kts | 179° |
| 2026-05-06 08:54 | 46.66393 | 8.58589 | 34848 ft | 418 kts | 179° |
| 2026-05-06 08:54 | 46.60601 | 8.59414 | 34858 ft | 418 kts | 179° |
| 2026-05-06 08:55 | 46.54808 | 8.60229 | 34866 ft | 419 kts | 179° |
| 2026-05-06 08:55 | 46.49008 | 8.61043 | 34802 ft | 419 kts | 180° |
| 2026-05-06 08:55 | 46.46115 | 8.61028 | 34238 ft | 411 kts | 191° |
| 2026-05-06 08:56 | 46.43341 | 8.60270 | 33553 ft | 403 kts | 197° |
| 2026-05-06 08:56 | 46.40677 | 8.59002 | 32558 ft | 402 kts | 204° |
| 2026-05-06 08:56 | 46.38239 | 8.57094 | 31849 ft | 396 kts | 212° |
| 2026-05-06 08:56 | 46.35910 | 8.54948 | 30944 ft | 398 kts | 213° |
| 2026-05-06 08:57 | 46.33566 | 8.52810 | 30042 ft | 398 kts | 212° |
| 2026-05-06 08:57 | 46.31231 | 8.50741 | 28941 ft | 400 kts | 209° |
| 2026-05-06 08:57 | 46.28648 | 8.49212 | 27894 ft | 402 kts | 198° |
| 2026-05-06 08:57 | 46.25915 | 8.48272 | 26754 ft | 406 kts | 192° |
| 2026-05-06 08:58 | 46.23091 | 8.47837 | 25701 ft | 409 kts | 183° |
| 2026-05-06 08:58 | 46.20244 | 8.48143 | 24813 ft | 411 kts | 176° |
| 2026-05-06 08:58 | 46.17404 | 8.48620 | 24311 ft | 409 kts | 175° |
| 2026-05-06 08:58 | 46.14578 | 8.49070 | 24176 ft | 408 kts | 176° |
| 2026-05-06 08:59 | 46.11802 | 8.49570 | 23998 ft | 395 kts | 172° |
| 2026-05-06 08:59 | 46.09188 | 8.50505 | 23898 ft | 379 kts | 164° |
| 2026-05-06 08:59 | 46.06783 | 8.51816 | 23866 ft | 360 kts | 162° |
| 2026-05-06 08:59 | 46.04506 | 8.53077 | 23855 ft | 342 kts | 163° |
| 2026-05-06 09:00 | 46.02328 | 8.54270 | 23840 ft | 327 kts | 163° |
| 2026-05-06 09:00 | 46.00250 | 8.55397 | 23856 ft | 311 kts | 164° |
| 2026-05-06 09:00 | 45.98268 | 8.56465 | 23822 ft | 297 kts | 165° |
| 2026-05-06 09:00 | 45.96384 | 8.57479 | 23849 ft | 282 kts | 165° |
| 2026-05-06 09:01 | 45.94592 | 8.58441 | 23831 ft | 268 kts | 165° |
| 2026-05-06 09:01 | 45.92888 | 8.59356 | 23834 ft | 254 kts | 166° |
| 2026-05-06 09:01 | 45.91269 | 8.60225 | 23844 ft | 244 kts | 166° |
| 2026-05-06 09:01 | 45.89689 | 8.61152 | 23852 ft | 253 kts | 155° |
| 2026-05-06 09:02 | 45.88218 | 8.62710 | 23877 ft | 271 kts | 149° |
| 2026-05-06 09:02 | 45.86740 | 8.64438 | 23871 ft | 275 kts | 148° |
| 2026-05-06 09:02 | 45.85268 | 8.66175 | 23856 ft | 273 kts | 149° |
| 2026-05-06 09:02 | 45.83802 | 8.67895 | 23828 ft | 271 kts | 149° |
| 2026-05-06 09:03 | 45.82346 | 8.69591 | 23776 ft | 268 kts | 149° |
| 2026-05-06 09:03 | 45.80900 | 8.71264 | 23504 ft | 265 kts | 149° |
| 2026-05-06 09:03 | 45.79466 | 8.72917 | 23006 ft | 264 kts | 149° |
| 2026-05-06 09:03 | 45.78035 | 8.74561 | 22495 ft | 266 kts | 150° |
| 2026-05-06 09:04 | 45.76531 | 8.76265 | 21392 ft | 287 kts | 150° |
| 2026-05-06 09:04 | 45.74819 | 8.77813 | 20203 ft | 303 kts | 157° |
| 2026-05-06 09:04 | 45.72937 | 8.79228 | 19393 ft | 307 kts | 158° |
| 2026-05-06 09:04 | 45.71040 | 8.80625 | 18794 ft | 304 kts | 158° |
| 2026-05-06 09:05 | 45.69189 | 8.82007 | 18256 ft | 300 kts | 157° |
| 2026-05-06 09:05 | 45.67355 | 8.83398 | 17633 ft | 297 kts | 156° |
| 2026-05-06 09:05 | 45.65534 | 8.84791 | 16929 ft | 296 kts | 156° |
| 2026-05-06 09:05 | 45.63723 | 8.86179 | 16262 ft | 295 kts | 156° |
| 2026-05-06 09:06 | 45.61914 | 8.87525 | 15619 ft | 291 kts | 161° |
| 2026-05-06 09:06 | 45.59992 | 8.88282 | 14971 ft | 285 kts | 172° |
| 2026-05-06 09:06 | 45.58046 | 8.88771 | 14373 ft | 283 kts | 173° |
| 2026-05-06 09:06 | 45.56107 | 8.89260 | 13754 ft | 283 kts | 172° |
| 2026-05-06 09:07 | 45.54174 | 8.89767 | 13117 ft | 281 kts | 172° |
| 2026-05-06 09:07 | 45.52270 | 8.90278 | 12677 ft | 273 kts | 172° |
| 2026-05-06 09:07 | 45.50451 | 8.90772 | 12468 ft | 259 kts | 172° |
| 2026-05-06 09:07 | 45.48703 | 8.91247 | 12059 ft | 253 kts | 172° |
| 2026-05-06 09:08 | 45.46979 | 8.91732 | 11555 ft | 252 kts | 167° |
| 2026-05-06 09:08 | 45.45487 | 8.93047 | 10982 ft | 262 kts | 133° |
| 2026-05-06 09:08 | 45.44783 | 8.95446 | 10572 ft | 271 kts | 97° |
| 2026-05-06 09:08 | 45.45048 | 8.98089 | 10489 ft | 270 kts | 79° |
| 2026-05-06 09:09 | 45.45583 | 9.00657 | 10377 ft | 280 kts | 77° |
| 2026-05-06 09:09 | 45.46166 | 9.03330 | 10121 ft | 284 kts | 77° |
| 2026-05-06 09:09 | 45.46755 | 9.06009 | 9877 ft | 283 kts | 76° |
| 2026-05-06 09:09 | 45.47348 | 9.08673 | 9620 ft | 282 kts | 74° |
| 2026-05-06 09:10 | 45.48421 | 9.11038 | 9315 ft | 295 kts | 41° |
| 2026-05-06 09:10 | 45.50293 | 9.12340 | 9096 ft | 306 kts | 11° |
| 2026-05-06 09:10 | 45.52374 | 9.12678 | 8910 ft | 297 kts | 3° |
| 2026-05-06 09:10 | 45.54396 | 9.12831 | 8851 ft | 285 kts | 2° |
| 2026-05-06 09:11 | 45.56352 | 9.12952 | 8844 ft | 279 kts | 2° |
| 2026-05-06 09:11 | 45.58304 | 9.13061 | 8863 ft | 283 kts | 1° |
| 2026-05-06 09:11 | 45.60287 | 9.13164 | 8872 ft | 286 kts | 1° |
| 2026-05-06 09:11 | 45.62272 | 9.13260 | 8863 ft | 285 kts | 1° |
| 2026-05-06 09:12 | 45.64249 | 9.13351 | 8849 ft | 284 kts | 1° |
| 2026-05-06 09:12 | 45.66193 | 9.13432 | 8850 ft | 282 kts | 1° |
| 2026-05-06 09:12 | 45.68153 | 9.13510 | 8867 ft | 282 kts | 1° |
| 2026-05-06 09:12 | 45.70149 | 9.13598 | 8873 ft | 285 kts | 1° |
| 2026-05-06 09:13 | 45.72117 | 9.13676 | 8863 ft | 288 kts | 1° |
| 2026-05-06 09:13 | 45.74115 | 9.13744 | 8850 ft | 288 kts | 1° |
| 2026-05-06 09:13 | 45.76113 | 9.13809 | 8843 ft | 287 kts | 1° |
| 2026-05-06 09:13 | 45.78041 | 9.14338 | 8847 ft | 280 kts | 30° |
| 2026-05-06 09:14 | 45.79425 | 9.16148 | 8848 ft | 268 kts | 65° |
| 2026-05-06 09:14 | 45.79847 | 9.18666 | 8870 ft | 259 kts | 101° |
| 2026-05-06 09:14 | 45.79210 | 9.20987 | 8833 ft | 248 kts | 135° |
| 2026-05-06 09:14 | 45.77942 | 9.22564 | 8700 ft | 239 kts | 147° |
| 2026-05-06 09:15 | 45.76575 | 9.23934 | 8371 ft | 239 kts | 148° |
| 2026-05-06 09:15 | 45.75192 | 9.25242 | 8027 ft | 238 kts | 155° |
| 2026-05-06 09:15 | 45.73584 | 9.25614 | 7714 ft | 237 kts | 188° |
| 2026-05-06 09:15 | 45.71993 | 9.25077 | 7492 ft | 233 kts | 193° |
| 2026-05-06 09:16 | 45.70431 | 9.24487 | 7372 ft | 232 kts | 193° |
| 2026-05-06 09:16 | 45.68869 | 9.23891 | 7250 ft | 233 kts | 193° |
| 2026-05-06 09:16 | 45.67312 | 9.23294 | 7124 ft | 236 kts | 193° |
| 2026-05-06 09:16 | 45.65732 | 9.22604 | 6883 ft | 238 kts | 200° |
| 2026-05-06 09:17 | 45.64219 | 9.21634 | 6754 ft | 239 kts | 203° |
| 2026-05-06 09:17 | 45.62715 | 9.20621 | 6607 ft | 239 kts | 203° |
| 2026-05-06 09:17 | 45.61206 | 9.19606 | 6472 ft | 239 kts | 203° |
| 2026-05-06 09:17 | 45.59700 | 9.18590 | 6330 ft | 239 kts | 203° |
| 2026-05-06 09:18 | 45.58204 | 9.17576 | 6185 ft | 237 kts | 204° |
| 2026-05-06 09:18 | 45.56712 | 9.16570 | 6053 ft | 236 kts | 203° |
| 2026-05-06 09:18 | 45.55234 | 9.15577 | 5947 ft | 234 kts | 203° |
| 2026-05-06 09:18 | 45.53761 | 9.14587 | 5826 ft | 233 kts | 203° |
| 2026-05-06 09:19 | 45.52294 | 9.13597 | 5693 ft | 234 kts | 203° |
| 2026-05-06 09:19 | 45.50825 | 9.12608 | 5598 ft | 232 kts | 204° |
| 2026-05-06 09:19 | 45.49369 | 9.11633 | 5482 ft | 231 kts | 203° |
| 2026-05-06 09:19 | 45.47924 | 9.10666 | 5397 ft | 228 kts | 203° |
| 2026-05-06 09:20 | 45.46494 | 9.09700 | 5301 ft | 226 kts | 204° |
| 2026-05-06 09:20 | 45.45077 | 9.08750 | 5218 ft | 224 kts | 204° |
| 2026-05-06 09:20 | 45.43661 | 9.07805 | 5155 ft | 225 kts | 203° |
| 2026-05-06 09:20 | 45.42256 | 9.06860 | 5091 ft | 227 kts | 203° |
| 2026-05-06 09:21 | 45.40815 | 9.05892 | 5041 ft | 230 kts | 204° |
| 2026-05-06 09:21 | 45.39369 | 9.04925 | 4987 ft | 230 kts | 203° |
| 2026-05-06 09:21 | 45.37924 | 9.03959 | 4973 ft | 230 kts | 203° |
| 2026-05-06 09:21 | 45.36479 | 9.02996 | 4954 ft | 229 kts | 204° |
| 2026-05-06 09:22 | 45.35037 | 9.02043 | 4950 ft | 228 kts | 203° |
| 2026-05-06 09:22 | 45.33594 | 9.01086 | 4964 ft | 229 kts | 203° |
| 2026-05-06 09:22 | 45.32143 | 9.00132 | 4944 ft | 229 kts | 204° |
| 2026-05-06 09:22 | 45.30697 | 8.99193 | 4916 ft | 229 kts | 203° |
| 2026-05-06 09:23 | 45.29234 | 8.98239 | 4694 ft | 232 kts | 203° |
| 2026-05-06 09:23 | 45.27782 | 8.97286 | 4378 ft | 229 kts | 203° |
| 2026-05-06 09:23 | 45.26348 | 8.96345 | 4105 ft | 226 kts | 203° |
| 2026-05-06 09:23 | 45.24925 | 8.95409 | 3849 ft | 224 kts | 203° |
| 2026-05-06 09:24 | 45.23512 | 8.94479 | 3586 ft | 223 kts | 203° |
| 2026-05-06 09:24 | 45.22103 | 8.93550 | 3390 ft | 222 kts | 203° |
| 2026-05-06 09:24 | 45.20708 | 8.92630 | 3360 ft | 220 kts | 203° |
| 2026-05-06 09:24 | 45.19322 | 8.91716 | 3346 ft | 221 kts | 203° |
| 2026-05-06 09:25 | 45.17864 | 8.90968 | 3298 ft | 226 kts | 183° |
| 2026-05-06 09:25 | 45.16323 | 8.91221 | 3337 ft | 229 kts | 171° |
| 2026-05-06 09:25 | 45.14743 | 8.91621 | 3321 ft | 232 kts | 171° |
| 2026-05-06 09:25 | 45.13162 | 8.92029 | 3312 ft | 230 kts | 171° |
| 2026-05-06 09:26 | 45.11593 | 8.92440 | 3311 ft | 228 kts | 171° |
| 2026-05-06 09:26 | 45.10041 | 8.92848 | 3304 ft | 226 kts | 170° |
| 2026-05-06 09:26 | 45.08495 | 8.93246 | 3318 ft | 226 kts | 170° |
| 2026-05-06 09:26 | 45.06942 | 8.93642 | 3327 ft | 228 kts | 170° |
| 2026-05-06 09:27 | 45.05369 | 8.94049 | 3355 ft | 232 kts | 171° |
| 2026-05-06 09:27 | 45.03780 | 8.94474 | 3311 ft | 230 kts | 170° |
| 2026-05-06 09:27 | 45.02230 | 8.94895 | 3297 ft | 224 kts | 170° |
| 2026-05-06 09:27 | 45.00717 | 8.95308 | 3289 ft | 220 kts | 171° |
| 2026-05-06 09:28 | 44.99216 | 8.95727 | 3321 ft | 221 kts | 170° |
| 2026-05-06 09:28 | 44.97690 | 8.96143 | 3320 ft | 225 kts | 171° |
| 2026-05-06 09:28 | 44.96146 | 8.96552 | 3320 ft | 226 kts | 170° |
| 2026-05-06 09:28 | 44.95126 | 8.96825 | 3308 ft | 225 kts | 171° |
| 2026-05-06 09:29 | 44.93186 | 8.96224 | 3320 ft | 220 kts | 219° |
| 2026-05-06 09:29 | 44.92571 | 8.95068 | 3329 ft | 227 kts | 242° |
| 2026-05-06 09:29 | 44.91995 | 8.92952 | 3328 ft | 234 kts | 246° |
| 2026-05-06 09:29 | 44.91447 | 8.90780 | 3331 ft | 235 kts | 246° |
| 2026-05-06 09:30 | 44.90903 | 8.88606 | 3321 ft | 235 kts | 246° |
| 2026-05-06 09:30 | 44.90360 | 8.86433 | 3316 ft | 234 kts | 246° |
| 2026-05-06 09:30 | 44.90116 | 8.84165 | 3305 ft | 243 kts | 276° |
| 2026-05-06 09:30 | 44.90871 | 8.82013 | 3328 ft | 251 kts | 308° |
| 2026-05-06 09:31 | 44.92265 | 8.80517 | 3319 ft | 256 kts | 332° |
| 2026-05-06 09:31 | 44.93991 | 8.79890 | 3314 ft | 258 kts | 355° |
| 2026-05-06 09:31 | 44.95774 | 8.79797 | 3325 ft | 257 kts | 358° |
| 2026-05-06 09:31 | 44.97560 | 8.79769 | 3327 ft | 257 kts | 359° |
| 2026-05-06 09:32 | 44.99348 | 8.79750 | 3327 ft | 258 kts | 359° |
| 2026-05-06 09:32 | 45.01143 | 8.79726 | 3314 ft | 258 kts | 359° |
| 2026-05-06 09:32 | 45.02935 | 8.79698 | 3316 ft | 257 kts | 358° |
| 2026-05-06 09:32 | 45.04725 | 8.79665 | 3323 ft | 258 kts | 359° |
| 2026-05-06 09:33 | 45.06520 | 8.79629 | 3326 ft | 259 kts | 359° |
| 2026-05-06 09:33 | 45.08303 | 8.79591 | 3330 ft | 259 kts | 358° |
| 2026-05-06 09:33 | 45.10129 | 8.79549 | 3304 ft | 259 kts | 358° |
| 2026-05-06 09:33 | 45.11926 | 8.79506 | 3311 ft | 258 kts | 359° |
| 2026-05-06 09:34 | 45.13694 | 8.79463 | 3312 ft | 257 kts | 358° |
| 2026-05-06 09:34 | 45.15476 | 8.79420 | 3323 ft | 256 kts | 359° |
| 2026-05-06 09:34 | 45.17279 | 8.79375 | 3314 ft | 256 kts | 359° |
| 2026-05-06 09:34 | 45.19042 | 8.79332 | 3321 ft | 257 kts | 359° |
| 2026-05-06 09:35 | 45.20833 | 8.79288 | 3327 ft | 258 kts | 359° |
| 2026-05-06 09:35 | 45.22632 | 8.79243 | 3424 ft | 258 kts | 359° |
| 2026-05-06 09:35 | 45.24429 | 8.79199 | 3416 ft | 258 kts | 359° |
| 2026-05-06 09:35 | 45.26221 | 8.79154 | 3425 ft | 256 kts | 359° |
| 2026-05-06 09:36 | 45.28003 | 8.79109 | 3437 ft | 256 kts | 359° |
| 2026-05-06 09:36 | 45.29784 | 8.79065 | 3437 ft | 256 kts | 359° |
| 2026-05-06 09:36 | 45.31561 | 8.79020 | 3451 ft | 256 kts | 359° |
| 2026-05-06 09:36 | 45.33337 | 8.78976 | 3450 ft | 255 kts | 359° |
| 2026-05-06 09:37 | 45.35112 | 8.78931 | 3450 ft | 255 kts | 359° |
| 2026-05-06 09:37 | 45.36880 | 8.78887 | 3452 ft | 251 kts | 359° |
| 2026-05-06 09:37 | 45.38590 | 8.78844 | 3424 ft | 238 kts | 359° |
| 2026-05-06 09:37 | 45.40176 | 8.78804 | 3431 ft | 227 kts | 359° |
| 2026-05-06 09:38 | 45.41251 | 8.78777 | 3443 ft | 226 kts | 359° |
| 2026-05-06 09:38 | 45.42804 | 8.78738 | 3423 ft | 225 kts | 359° |
| 2026-05-06 09:38 | 45.44357 | 8.78566 | 3349 ft | 224 kts | 350° |
| 2026-05-06 09:38 | 45.45902 | 8.78136 | 3326 ft | 229 kts | 349° |
| 2026-05-06 09:39 | 45.47479 | 8.77676 | 3221 ft | 232 kts | 349° |
| 2026-05-06 09:39 | 45.49070 | 8.77223 | 3089 ft | 229 kts | 349° |
| 2026-05-06 09:39 | 45.50603 | 8.76789 | 2843 ft | 229 kts | 350° |
| 2026-05-06 09:39 | 45.52161 | 8.76352 | 2583 ft | 223 kts | 351° |
| 2026-05-06 09:40 | 45.53642 | 8.75938 | 2313 ft | 210 kts | 351° |
| 2026-05-06 09:40 | 45.55040 | 8.75551 | 2033 ft | 199 kts | 352° |
| 2026-05-06 09:40 | 45.57560 | 8.74852 | 1672 ft | 161 kts | 351° |
| 2026-05-06 09:41 | 45.58588 | 8.74574 | 1400 ft | 142 kts | 354° |
| 2026-05-06 09:41 | 45.59577 | 8.74315 | 1234 ft | 152 kts | 353° |
| 2026-05-06 09:41 | 45.60601 | 8.74030 | 987 ft | 148 kts | 354° |
| 2026-05-06 09:41 | 45.61593 | 8.73745 | 736 ft | 142 kts | 353° |
| 2026-05-06 09:42 | 45.62459 | 8.73511 | 721 ft | 99 kts | 348° |
| 2026-05-06 09:42 | 45.62932 | 8.73373 | 726 ft | 47 kts | 345° |
| 2026-05-06 09:42 | 45.63202 | 8.73163 | 733 ft | 41 kts | 315° |
| 2026-05-06 09:42 | 45.63301 | 8.72984 | 736 ft | 17 kts | 304° |
| 2026-05-06 09:43 | 45.63358 | 8.72860 | 739 ft | 11 kts | 301° |
| 2026-05-06 09:43 | 45.63381 | 8.72804 | 738 ft | 4 kts | 298° |
| 2026-05-06 09:43 | 45.63392 | 8.72773 | 741 ft | 3 kts | 297° |
| 2026-05-06 09:43 | 45.63397 | 8.72745 | 741 ft | 2 kts | 274° |
| 2026-05-06 09:44 | 45.63397 | 8.72742 | 741 ft | 0 kts | 274° |
| 2026-05-06 09:44 | 45.63406 | 8.72647 | 742 ft | 21 kts | 278° |
| 2026-05-06 09:44 | 45.63384 | 8.72443 | 744 ft | 21 kts | 259° |
| 2026-05-06 09:44 | 45.63358 | 8.72245 | 742 ft | 20 kts | 259° |
| 2026-05-06 09:45 | 45.63332 | 8.72064 | 744 ft | 16 kts | 258° |
| 2026-05-06 09:45 | 45.63321 | 8.71991 | 745 ft | 1 kts | 257° |
| 2026-05-06 09:45 | 45.63319 | 8.71981 | 744 ft | 1 kts | 258° |
| 2026-05-06 09:45 | 45.63318 | 8.71973 | 743 ft | 0 kts | 258° |
| 2026-05-06 09:46 | 45.63306 | 8.71968 | 742 ft | 8 kts | 193° |
| 2026-05-06 09:46 | 45.63198 | 8.71993 | 743 ft | 20 kts | 168° |
| 2026-05-06 09:46 | 45.63064 | 8.72032 | 740 ft | 19 kts | 168° |
| 2026-05-06 09:46 | 45.62934 | 8.72065 | 737 ft | 19 kts | 171° |
| 2026-05-06 09:47 | 45.62809 | 8.72099 | 735 ft | 18 kts | 170° |
| 2026-05-06 09:47 | 45.62693 | 8.72091 | 731 ft | 17 kts | 228° |
| 2026-05-06 09:47 | 45.62668 | 8.71953 | 730 ft | 14 kts | 261° |
| 2026-05-06 09:47 | 45.62628 | 8.71843 | 731 ft | 13 kts | 193° |
| 2026-05-06 09:48 | 45.62539 | 8.71863 | 729 ft | 13 kts | 167° |
| 2026-05-06 09:48 | 45.62453 | 8.71887 | 729 ft | 12 kts | 171° |
| 2026-05-06 09:48 | 45.62432 | 8.71932 | 727 ft | 5 kts | 78° |
| 2026-05-06 09:48 | 45.62438 | 8.71973 | 729 ft | 0 kts | 79° |
| 2026-05-06 09:49 | 45.62439 | 8.71980 | 727 ft | 5 kts | 79° |
| 2026-05-06 09:49 | 45.62442 | 8.72005 | 728 ft | 0 kts | 79° |
| 2026-05-06 09:51 | 45.62442 | 8.72004 | 728 ft | 0 kts | 79° |
| 2026-05-06 10:05 | 45.62442 | 8.72003 | 755 ft | 0 kts | 79° |
| 2026-05-06 10:15 | 45.62442 | 8.72002 | 727 ft | 0 kts | 79° |
| 2026-05-06 10:24 | 45.62442 | 8.72001 | 727 ft | 0 kts | 80° |
| 2026-05-06 10:33 | 45.62442 | 8.72000 | 699 ft | 0 kts | 80° |